Time;durP1;ratioP1;P1;durP2;ratioP2;P2;SDS_P1;SDS_P2;PMS_P1;PMS_P2;Temp;Humidity;BMP_temperature;BMP_pressure;BME280_temperature;BME280_humidity;BME280_pressure;Samples;Min_cycle;Max_cycle;Signal;HPM_P1;HPM_P2
2024/02/17 00:02:05;;;;;;;94.10;89.43;;;;;;;;;;5066210;28;20036;-51
2024/02/17 00:04:30;;;;;;;91.65;86.68;;;;;;;;;;5064044;28;20094;-50
2024/02/17 00:06:55;;;;;;;96.53;91.72;;;;;;;;;;5070013;28;20458;-53
2024/02/17 00:09:21;;;;;;;87.20;82.72;;;;;;;;;;5063285;28;20040;-50
2024/02/17 00:11:46;;;;;;;94.10;89.30;;;;;;;;;;5067565;28;20166;-62
2024/02/17 00:14:12;;;;;;;98.13;93.15;;;;;;;;;;5065065;28;21196;-53
2024/02/17 00:16:37;;;;;;;95.32;90.57;;;;;;;;;;5065992;28;20099;-50
2024/02/17 00:19:04;;;;;;;95.85;91.00;;;;;;;;;;5067498;28;20055;-53
2024/02/17 00:21:29;;;;;;;91.78;87.15;;;;;;;;;;5064603;28;20033;-49
2024/02/17 00:23:55;;;;;;;92.55;87.82;;;;;;;;;;5067800;28;20428;-49
2024/02/17 00:26:20;;;;;;;89.40;84.85;;;;;;;;;;5062802;28;20033;-47
2024/02/17 00:28:45;;;;;;;90.50;85.85;;;;;;;;;;5067541;28;20458;-50
2024/02/17 00:31:11;;;;;;;89.45;84.95;;;;;;;;;;5068385;28;20358;-48
2024/02/17 00:33:37;;;;;;;86.50;82.13;;;;;;;;;;5072342;28;20506;-62
2024/02/17 00:36:04;;;;;;;86.13;81.72;;;;;;;;;;5068255;28;20113;-47
2024/02/17 00:38:29;;;;;;;93.03;88.32;;;;;;;;;;5064183;28;20505;-47
2024/02/17 00:40:56;;;;;;;87.35;83.00;;;;;;;;;;5066519;28;20044;-50
2024/02/17 00:43:22;;;;;;;85.75;81.47;;;;;;;;;;5061449;28;20473;-61
2024/02/17 00:45:48;;;;;;;87.20;82.80;;;;;;;;;;5066202;28;20036;-61
2024/02/17 00:48:14;;;;;;;93.18;88.43;;;;;;;;;;5062858;28;20024;-62
2024/02/17 00:50:39;;;;;;;95.68;90.72;;;;;;;;;;5066277;28;20089;-62
2024/02/17 00:53:04;;;;;;;92.80;88.07;;;;;;;;;;5064482;28;20033;-61
2024/02/17 00:55:30;;;;;;;98.43;93.47;;;;;;;;;;5062746;28;20401;-61
2024/02/17 00:57:55;;;;;;;99.57;94.57;;;;;;;;;;5064340;28;20087;-51
2024/02/17 01:00:21;;;;;;;89.72;85.25;;;;;;;;;;5064286;28;20039;-61
2024/02/17 01:02:47;;;;;;;86.00;81.72;;;;;;;;;;5062634;28;20583;-46
2024/02/17 01:05:13;;;;;;;81.53;77.35;;;;;;;;;;5062923;28;20040;-52
2024/02/17 01:07:38;;;;;;;87.80;83.35;;;;;;;;;;5063239;28;20024;-52
2024/02/17 01:10:04;;;;;;;79.13;75.18;;;;;;;;;;5064384;28;20055;-62
2024/02/17 01:12:29;;;;;;;82.20;78.03;;;;;;;;;;5063437;28;20051;-61
2024/02/17 01:14:55;;;;;;;87.18;82.65;;;;;;;;;;5066122;28;20055;-61
2024/02/17 01:17:20;;;;;;;86.30;81.80;;;;;;;;;;5064972;28;20068;-61
2024/02/17 01:19:47;;;;;;;85.22;80.90;;;;;;;;;;5062584;28;20053;-62
2024/02/17 01:22:12;;;;;;;81.88;77.72;;;;;;;;;;5064838;28;20083;-62
2024/02/17 01:24:37;;;;;;;80.03;76.00;;;;;;;;;;5061904;28;20048;-61
2024/02/17 01:27:06;;;;;;;73.18;69.40;;;;;;;;;;5066773;28;20454;-61
2024/02/17 01:29:32;;;;;;;76.25;72.28;;;;;;;;;;5063994;28;20093;-50
2024/02/17 01:31:57;;;;;;;90.28;85.72;;;;;;;;;;5066414;28;20040;-62
2024/02/17 01:34:22;;;;;;;88.75;84.10;;;;;;;;;;5064222;28;20127;-49
2024/02/17 01:36:50;;;;;;;80.85;76.75;;;;;;;;;;5063131;28;20019;-61
2024/02/17 01:39:15;;;;;;;82.82;78.45;;;;;;;;;;5063894;28;20032;-62
2024/02/17 01:41:40;;;;;;;88.68;84.20;;;;;;;;;;5064351;28;20102;-53
2024/02/17 01:44:06;;;;;;;88.60;84.13;;;;;;;;;;5064542;28;20036;-50
2024/02/17 01:46:32;;;;;;;90.60;85.68;;;;;;;;;;5050486;28;20035;-51
2024/02/17 01:48:58;;;;;;;88.35;83.80;;;;;;;;;;5065758;28;20043;-53
2024/02/17 01:51:25;;;;;;;95.75;90.95;;;;;;;;;;5064268;28;20040;-50
2024/02/17 01:53:50;;;;;;;97.65;92.50;;;;;;;;;;5063932;28;20028;-50
2024/02/17 01:56:18;;;;;;;110.40;104.82;;;;;;;;;;5061997;28;20414;-51
2024/02/17 01:58:44;;;;;;;99.65;94.60;;;;;;;;;;5064974;28;20116;-51
2024/02/17 02:01:10;;;;;;;102.10;97.00;;;;;;;;;;5063613;28;20131;-52
2024/02/17 02:03:36;;;;;;;108.40;102.93;;;;;;;;;;5065721;28;20059;-46
2024/02/17 02:06:02;;;;;;;103.68;98.25;;;;;;;;;;5063588;28;20041;-50
2024/02/17 02:08:28;;;;;;;96.82;92.00;;;;;;;;;;5064922;28;20044;-48
2024/02/17 02:10:55;;;;;;;98.60;93.63;;;;;;;;;;5060888;28;20103;-50
2024/02/17 02:13:20;;;;;;;96.03;91.10;;;;;;;;;;5060440;28;20036;-62
2024/02/17 02:15:46;;;;;;;92.60;87.95;;;;;;;;;;5061945;28;20046;-50
2024/02/17 02:18:11;;;;;;;88.20;83.75;;;;;;;;;;5067866;28;20366;-48
2024/02/17 02:20:40;;;;;;;89.00;84.18;;;;;;;;;;5061851;28;20070;-48
2024/02/17 02:23:05;;;;;;;93.43;88.63;;;;;;;;;;5063360;28;20035;-62
2024/02/17 02:25:32;;;;;;;88.97;84.47;;;;;;;;;;5060546;28;20414;-47
2024/02/17 02:27:57;;;;;;;89.32;84.80;;;;;;;;;;5062935;28;20466;-65
2024/02/17 02:30:23;;;;;;;84.90;80.60;;;;;;;;;;5063150;28;20025;-53
2024/02/17 02:32:49;;;;;;;83.85;79.53;;;;;;;;;;5065571;28;20020;-50
2024/02/17 02:35:14;;;;;;;77.35;73.40;;;;;;;;;;5066640;28;20089;-51
2024/02/17 02:37:40;;;;;;;85.63;81.25;;;;;;;;;;5061517;28;20040;-62
2024/02/17 02:40:06;;;;;;;87.47;83.05;;;;;;;;;;5064674;28;20063;-63
2024/02/17 02:42:31;;;;;;;90.00;85.45;;;;;;;;;;5063373;28;20041;-63
2024/02/17 02:44:57;;;;;;;89.05;84.57;;;;;;;;;;5064242;28;20037;-62
2024/02/17 02:47:22;;;;;;;89.28;84.72;;;;;;;;;;5061779;28;20045;-62
2024/02/17 02:49:47;;;;;;;81.53;77.40;;;;;;;;;;5063103;28;20055;-62
2024/02/17 02:52:13;;;;;;;71.43;67.78;;;;;;;;;;5062694;28;20385;-62
2024/02/17 02:54:39;;;;;;;74.38;70.55;;;;;;;;;;5061598;28;20587;-62
2024/02/17 02:57:05;;;;;;;78.10;73.75;;;;;;;;;;5062959;28;20626;-63
2024/02/17 02:59:30;;;;;;;79.03;75.05;;;;;;;;;;5063832;28;20036;-62
2024/02/17 03:01:56;;;;;;;69.53;65.90;;;;;;;;;;5062009;28;20434;-49
2024/02/17 03:04:21;;;;;;;71.55;67.88;;;;;;;;;;5063458;28;20535;-50
2024/02/17 03:06:47;;;;;;;76.18;72.35;;;;;;;;;;5058399;28;20041;-53
2024/02/17 03:09:13;;;;;;;76.82;72.93;;;;;;;;;;5066704;28;20489;-62
2024/02/17 03:11:39;;;;;;;74.30;70.53;;;;;;;;;;5063237;28;20032;-50
2024/02/17 03:14:04;;;;;;;75.75;71.95;;;;;;;;;;5063859;28;20044;-52
2024/02/17 03:16:29;;;;;;;73.88;70.03;;;;;;;;;;5063529;28;20056;-48
2024/02/17 03:18:55;;;;;;;82.22;78.03;;;;;;;;;;5062095;28;20059;-53
2024/02/17 03:21:21;;;;;;;84.85;80.53;;;;;;;;;;5059692;28;20036;-53
2024/02/17 03:23:46;;;;;;;82.45;78.28;;;;;;;;;;5060011;28;20040;-53
2024/02/17 03:26:12;;;;;;;78.10;74.15;;;;;;;;;;5060725;28;20083;-49
2024/02/17 03:28:37;;;;;;;74.53;70.75;;;;;;;;;;5063322;28;20129;-50
2024/02/17 03:31:03;;;;;;;73.97;70.20;;;;;;;;;;5063834;28;20064;-52
2024/02/17 03:33:29;;;;;;;76.35;72.47;;;;;;;;;;5059702;28;20094;-50
2024/02/17 03:35:54;;;;;;;81.97;77.80;;;;;;;;;;5062903;28;20024;-52
2024/02/17 03:38:20;;;;;;;82.18;78.03;;;;;;;;;;5064104;28;20040;-52
2024/02/17 03:40:45;;;;;;;82.18;77.93;;;;;;;;;;5069393;28;20047;-63
2024/02/17 03:43:10;;;;;;;86.45;82.05;;;;;;;;;;5067745;28;20716;-51
2024/02/17 03:45:35;;;;;;;74.55;70.57;;;;;;;;;;5065686;28;20043;-52
2024/02/17 03:48:01;;;;;;;73.20;69.50;;;;;;;;;;5067750;28;20040;-51
2024/02/17 03:50:27;;;;;;;68.28;64.75;;;;;;;;;;5066067;28;20096;-52
2024/02/17 03:52:52;;;;;;;69.25;65.60;;;;;;;;;;5065330;28;20039;-51
2024/02/17 03:55:18;;;;;;;69.60;66.07;;;;;;;;;;5064547;28;20108;-62
2024/02/17 03:57:44;;;;;;;79.15;74.97;;;;;;;;;;5065972;28;20031;-50
2024/02/17 04:00:13;;;;;;;74.45;70.72;;;;;;;;;;5063881;28;20332;-50
2024/02/17 04:02:39;;;;;;;73.82;70.13;;;;;;;;;;5066264;28;20112;-50
2024/02/17 04:05:05;;;;;;;73.97;70.18;;;;;;;;;;5067515;28;20044;-62
2024/02/17 04:07:30;;;;;;;69.28;65.72;;;;;;;;;;5066032;28;20025;-51
2024/02/17 04:09:55;;;;;;;77.18;73.18;;;;;;;;;;5065449;28;20036;-51
2024/02/17 04:12:21;;;;;;;73.68;69.78;;;;;;;;;;5062945;28;20071;-52
2024/02/17 04:14:46;;;;;;;66.80;63.42;;;;;;;;;;5066725;28;20036;-51
2024/02/17 04:17:11;;;;;;;63.58;60.25;;;;;;;;;;5065245;28;20195;-53
2024/02/17 04:19:38;;;;;;;62.30;59.15;;;;;;;;;;5065887;28;20106;-53
2024/02/17 04:22:04;;;;;;;66.55;63.15;;;;;;;;;;5067047;28;20041;-52
2024/02/17 04:24:29;;;;;;;70.80;66.95;;;;;;;;;;5065727;28;20033;-53
2024/02/17 04:26:56;;;;;;;72.30;68.63;;;;;;;;;;5066063;28;20110;-53
2024/02/17 04:29:21;;;;;;;77.80;73.88;;;;;;;;;;5065366;28;20122;-51
2024/02/17 04:31:46;;;;;;;78.55;74.45;;;;;;;;;;5067015;28;20119;-50
2024/02/17 04:34:12;;;;;;;74.55;70.70;;;;;;;;;;5067387;28;20484;-50
2024/02/17 04:36:37;;;;;;;75.72;71.60;;;;;;;;;;5064316;28;20498;-62
2024/02/17 04:39:04;;;;;;;70.78;67.13;;;;;;;;;;5066274;28;20361;-62
2024/02/17 04:41:29;;;;;;;73.22;69.45;;;;;;;;;;5063922;28;20039;-63
2024/02/17 04:43:55;;;;;;;68.75;65.20;;;;;;;;;;5062999;28;20123;-63
2024/02/17 04:46:20;;;;;;;66.93;63.53;;;;;;;;;;5064498;28;20799;-63
2024/02/17 04:48:45;;;;;;;68.88;65.43;;;;;;;;;;5064615;28;20028;-63
2024/02/17 04:51:11;;;;;;;67.93;64.38;;;;;;;;;;5062935;28;20039;-63
2024/02/17 04:53:36;;;;;;;73.20;69.50;;;;;;;;;;5062024;28;20502;-52
2024/02/17 04:56:09;;;;;;;78.78;74.50;;;;;;;;;;5064581;28;20122;-63
2024/02/17 04:58:34;;;;;;;85.35;81.00;;;;;;;;;;5060346;28;20017;-63
2024/02/17 05:01:00;;;;;;;81.68;77.30;;;;;;;;;;5065951;28;20101;-49
2024/02/17 05:03:26;;;;;;;80.93;76.75;;;;;;;;;;5065615;28;20121;-52
2024/02/17 05:05:52;;;;;;;89.43;84.88;;;;;;;;;;5061523;28;20489;-63
2024/02/17 05:08:17;;;;;;;79.85;75.70;;;;;;;;;;5060636;28;20029;-62
2024/02/17 05:10:42;;;;;;;85.05;79.93;;;;;;;;;;5063386;28;20542;-63
2024/02/17 05:13:08;;;;;;;81.47;77.25;;;;;;;;;;5060792;28;20459;-50
2024/02/17 05:15:34;;;;;;;78.05;73.88;;;;;;;;;;5064042;28;20028;-62
2024/02/17 05:18:00;;;;;;;76.97;72.97;;;;;;;;;;5066132;28;20042;-53
2024/02/17 05:20:26;;;;;;;78.32;74.28;;;;;;;;;;5061184;28;20377;-50
2024/02/17 05:22:51;;;;;;;74.43;70.53;;;;;;;;;;5062780;28;20033;-50
2024/02/17 05:25:18;;;;;;;79.28;75.10;;;;;;;;;;5064711;28;20055;-47
2024/02/17 05:27:43;;;;;;;77.63;73.70;;;;;;;;;;5062053;28;20024;-53
2024/02/17 05:30:09;;;;;;;73.57;69.70;;;;;;;;;;5064860;28;20424;-50
2024/02/17 05:32:35;;;;;;;67.25;63.78;;;;;;;;;;5068278;28;20046;-50
2024/02/17 05:35:00;;;;;;;73.35;69.43;;;;;;;;;;5063674;28;20131;-52
2024/02/17 05:37:25;;;;;;;76.45;72.60;;;;;;;;;;5060922;28;20090;-49
2024/02/17 05:39:51;;;;;;;73.85;69.97;;;;;;;;;;5065333;28;20041;-52
2024/02/17 05:42:16;;;;;;;64.88;61.53;;;;;;;;;;5065082;28;20029;-49
2024/02/17 05:44:41;;;;;;;70.65;66.97;;;;;;;;;;5062130;28;20029;-50
2024/02/17 05:47:06;;;;;;;73.20;69.30;;;;;;;;;;5061649;28;20052;-62
2024/02/17 05:49:32;;;;;;;69.57;66.05;;;;;;;;;;5063950;28;20041;-64
2024/02/17 05:51:58;;;;;;;73.53;69.68;;;;;;;;;;5063126;28;20390;-63
2024/02/17 05:54:24;;;;;;;77.00;73.05;;;;;;;;;;5063502;28;20060;-50
2024/02/17 05:56:49;;;;;;;70.00;66.32;;;;;;;;;;5058370;28;20023;-54
2024/02/17 05:59:15;;;;;;;71.72;68.07;;;;;;;;;;5061114;28;20383;-51
2024/02/17 06:01:41;;;;;;;72.47;68.78;;;;;;;;;;5066111;28;20032;-53
2024/02/17 06:04:08;;;;;;;73.28;69.50;;;;;;;;;;5062324;28;20040;-53
2024/02/17 06:06:33;;;;;;;73.22;69.40;;;;;;;;;;5059262;28;20046;-49
2024/02/17 06:08:59;;;;;;;69.15;65.63;;;;;;;;;;5063469;28;20044;-49
2024/02/17 06:11:24;;;;;;;66.75;62.70;;;;;;;;;;5058391;28;20033;-51
2024/02/17 06:13:49;;;;;;;61.00;57.80;;;;;;;;;;5050778;28;20028;-63
2024/02/17 06:16:18;;;;;;;58.67;55.60;;;;;;;;;;5059052;28;20529;-63
2024/02/17 06:21:28;;;;;;;55.03;52.08;;;;;;;;;;5060862;28;20033;-63
2024/02/17 06:23:53;;;;;;;58.10;55.08;;;;;;;;;;5058536;28;20035;-63
2024/02/17 06:26:29;;;;;;;58.38;55.08;;;;;;;;;;5060387;28;20037;-62
2024/02/17 06:28:56;;;;;;;52.97;50.10;;;;;;;;;;5060216;28;20036;-62
2024/02/17 06:31:23;;;;;;;52.38;49.30;;;;;;;;;;5059197;28;20040;-65
2024/02/17 06:33:49;;;;;;;61.53;58.28;;;;;;;;;;5066805;28;20031;-65
2024/02/17 06:36:14;;;;;;;60.85;57.70;;;;;;;;;;5063718;28;20027;-63
2024/02/17 06:38:40;;;;;;;62.95;59.53;;;;;;;;;;5057670;28;20135;-64
2024/02/17 06:41:06;;;;;;;55.45;52.60;;;;;;;;;;5062291;28;20067;-64
2024/02/17 06:43:32;;;;;;;56.70;53.75;;;;;;;;;;5063897;28;20056;-54
2024/02/17 06:46:01;;;;;;;61.00;57.65;;;;;;;;;;5061120;28;20033;-54
2024/02/17 06:48:26;;;;;;;64.65;61.33;;;;;;;;;;5060728;28;20044;-53
2024/02/17 06:50:53;;;;;;;71.35;66.65;;;;;;;;;;5059940;28;20033;-54
2024/02/17 06:53:18;;;;;;;81.57;77.30;;;;;;;;;;5059641;28;20621;-52
2024/02/17 06:55:44;;;;;;;84.75;80.32;;;;;;;;;;5057074;28;20078;-53
2024/02/17 06:58:09;;;;;;;81.20;77.03;;;;;;;;;;5059112;28;20037;-49
2024/02/17 07:00:36;;;;;;;57.97;54.45;;;;;;;;;;5059127;28;20101;-52
2024/02/17 07:03:06;;;;;;;41.70;39.42;;;;;;;;;;5058207;28;20032;-52
2024/02/17 07:05:31;;;;;;;39.55;37.22;;;;;;;;;;5058203;28;20545;-52
2024/02/17 07:07:58;;;;;;;46.67;43.90;;;;;;;;;;5059049;28;20068;-51
2024/02/17 07:10:23;;;;;;;53.72;50.60;;;;;;;;;;5059933;28;20035;-52
2024/02/17 07:12:48;;;;;;;62.78;59.00;;;;;;;;;;5058350;28;20028;-64
2024/02/17 07:15:14;;;;;;;67.20;62.95;;;;;;;;;;5060239;28;20036;-65
2024/02/17 07:17:39;;;;;;;65.15;60.97;;;;;;;;;;5059855;28;20578;-65
2024/02/17 07:20:06;;;;;;;65.38;61.42;;;;;;;;;;5064392;28;20044;-49
2024/02/17 07:22:31;;;;;;;70.60;66.75;;;;;;;;;;5063047;28;20033;-49
2024/02/17 07:24:57;;;;;;;71.10;67.28;;;;;;;;;;5059157;28;20098;-49
2024/02/17 07:27:24;;;;;;;72.95;69.10;;;;;;;;;;5062029;28;20040;-53
2024/02/17 07:29:50;;;;;;;67.25;63.67;;;;;;;;;;5063443;28;20047;-53
2024/02/17 07:32:15;;;;;;;73.30;69.55;;;;;;;;;;5066229;28;20029;-48
2024/02/17 07:34:43;;;;;;;85.72;81.15;;;;;;;;;;5062052;28;20037;-53
2024/02/17 07:37:08;;;;;;;86.07;81.57;;;;;;;;;;5058117;28;20063;-51
2024/02/17 07:39:35;;;;;;;92.05;87.25;;;;;;;;;;5061976;28;20044;-49
2024/02/17 07:42:01;;;;;;;73.05;69.00;;;;;;;;;;5060427;28;20041;-50
2024/02/17 07:44:27;;;;;;;73.93;70.13;;;;;;;;;;5060819;28;20063;-51
2024/02/17 07:46:52;;;;;;;75.82;71.88;;;;;;;;;;5064061;28;20806;-52
2024/02/17 07:49:18;;;;;;;71.03;67.40;;;;;;;;;;5060346;28;20043;-65
2024/02/17 07:51:44;;;;;;;73.30;69.53;;;;;;;;;;5059952;28;20029;-64
2024/02/17 07:54:09;;;;;;;69.88;66.22;;;;;;;;;;5064710;28;20492;-53
2024/02/17 07:56:35;;;;;;;68.70;65.20;;;;;;;;;;5058777;28;20036;-65
2024/02/17 07:59:00;;;;;;;72.80;68.97;;;;;;;;;;5063780;28;20051;-67
2024/02/17 08:01:25;;;;;;;72.20;68.40;;;;;;;;;;5065752;28;20035;-64
2024/02/17 08:03:51;;;;;;;70.18;66.45;;;;;;;;;;5063983;28;20173;-64
2024/02/17 08:06:20;;;;;;;63.05;59.75;;;;;;;;;;5062314;28;20363;-64
2024/02/17 08:08:48;;;;;;;67.00;63.55;;;;;;;;;;5062933;28;20029;-50
2024/02/17 08:11:14;;;;;;;74.35;70.53;;;;;;;;;;5063333;28;20495;-64
2024/02/17 08:13:41;;;;;;;75.75;71.82;;;;;;;;;;5065750;28;20040;-64
2024/02/17 08:16:07;;;;;;;69.43;65.40;;;;;;;;;;5063907;28;20020;-64
2024/02/17 08:18:32;;;;;;;73.97;70.22;;;;;;;;;;5061397;28;20454;-63
2024/02/17 08:21:00;;;;;;;62.28;59.03;;;;;;;;;;5064354;28;20033;-50
2024/02/17 08:23:26;;;;;;;67.45;63.95;;;;;;;;;;5061084;28;20654;-52
2024/02/17 08:25:53;;;;;;;69.20;65.50;;;;;;;;;;5055270;28;20080;-63
2024/02/17 08:28:18;;;;;;;65.60;62.20;;;;;;;;;;5054378;28;20067;-63
2024/02/17 08:30:43;;;;;;;64.28;60.97;;;;;;;;;;5054783;28;20032;-63
2024/02/17 08:33:09;;;;;;;60.72;57.63;;;;;;;;;;5059188;28;20093;-48
2024/02/17 08:35:35;;;;;;;61.72;58.50;;;;;;;;;;5060500;28;20041;-63
2024/02/17 08:38:01;;;;;;;62.10;58.92;;;;;;;;;;5066060;28;20529;-63
2024/02/17 08:40:27;;;;;;;69.95;66.32;;;;;;;;;;5064438;28;20064;-46
2024/02/17 08:42:52;;;;;;;62.50;59.10;;;;;;;;;;5063459;28;20080;-47
2024/02/17 08:45:17;;;;;;;54.92;52.10;;;;;;;;;;5062635;28;20449;-63
2024/02/17 08:47:43;;;;;;;65.35;61.97;;;;;;;;;;5064750;28;20446;-47
2024/02/17 08:50:08;;;;;;;57.28;54.28;;;;;;;;;;5066212;28;20028;-63
2024/02/17 08:52:34;;;;;;;72.20;68.53;;;;;;;;;;5063481;28;20032;-64
2024/02/17 08:54:59;;;;;;;65.57;62.28;;;;;;;;;;5065446;28;20048;-46
2024/02/17 08:57:25;;;;;;;66.97;63.50;;;;;;;;;;5061033;28;20032;-48
2024/02/17 08:59:50;;;;;;;48.88;46.30;;;;;;;;;;5064043;28;20041;-64
2024/02/17 09:02:18;;;;;;;53.20;50.40;;;;;;;;;;5063576;28;20059;-63
2024/02/17 09:04:45;;;;;;;40.75;38.53;;;;;;;;;;5064732;28;20476;-64
2024/02/17 09:07:10;;;;;;;38.58;36.47;;;;;;;;;;5061384;28;20041;-49
2024/02/17 09:09:36;;;;;;;51.47;48.50;;;;;;;;;;5060652;28;20029;-50
2024/02/17 09:12:01;;;;;;;47.30;44.80;;;;;;;;;;5065899;28;20036;-51
2024/02/17 09:14:32;;;;;;;50.13;47.35;;;;;;;;;;5061468;28;20034;-64
2024/02/17 09:16:59;;;;;;;39.40;37.15;;;;;;;;;;5065806;28;20036;-47
2024/02/17 09:19:24;;;;;;;40.35;38.22;;;;;;;;;;5061210;28;20057;-50
2024/02/17 09:21:51;;;;;;;44.88;42.58;;;;;;;;;;5062184;28;20064;-65
2024/02/17 09:24:19;;;;;;;54.35;51.35;;;;;;;;;;5063784;28;20776;-51
2024/02/17 09:26:45;;;;;;;47.58;45.05;;;;;;;;;;5059450;28;20043;-49
2024/02/17 09:29:11;;;;;;;58.20;55.20;;;;;;;;;;5061871;28;20159;-65
2024/02/17 09:31:36;;;;;;;50.28;47.67;;;;;;;;;;5060796;28;20434;-65
2024/02/17 09:34:01;;;;;;;53.05;50.33;;;;;;;;;;5061339;28;20035;-47
2024/02/17 09:36:28;;;;;;;45.72;43.05;;;;;;;;;;5059224;28;20021;-50
2024/02/17 09:38:53;;;;;;;37.67;35.67;;;;;;;;;;5066966;28;20505;-64
2024/02/17 09:41:19;;;;;;;44.90;42.50;;;;;;;;;;5061951;28;20037;-50
2024/02/17 09:43:45;;;;;;;36.50;34.55;;;;;;;;;;5060978;28;20036;-50
2024/02/17 09:46:12;;;;;;;38.58;36.55;;;;;;;;;;5059802;28;20035;-51
2024/02/17 09:48:39;;;;;;;35.13;33.22;;;;;;;;;;5060398;28;20058;-51
2024/02/17 09:51:06;;;;;;;30.35;28.75;;;;;;;;;;5062948;28;20472;-51
2024/02/17 09:53:32;;;;;;;30.40;28.73;;;;;;;;;;5064249;28;20094;-49
2024/02/17 09:55:59;;;;;;;27.50;26.00;;;;;;;;;;5063725;28;20413;-49
2024/02/17 09:58:25;;;;;;;28.20;26.67;;;;;;;;;;5060764;28;20037;-48
2024/02/17 10:00:50;;;;;;;29.30;27.70;;;;;;;;;;5063777;28;20090;-53
2024/02/17 10:03:17;;;;;;;32.35;30.63;;;;;;;;;;5064948;28;20041;-52
2024/02/17 10:05:44;;;;;;;35.78;33.83;;;;;;;;;;5062454;28;20090;-53
2024/02/17 10:08:09;;;;;;;30.92;29.23;;;;;;;;;;5065622;28;20040;-64
2024/02/17 10:10:35;;;;;;;36.72;34.53;;;;;;;;;;5062312;28;20049;-50
2024/02/17 10:13:02;;;;;;;33.00;31.20;;;;;;;;;;5065135;28;20756;-49
2024/02/17 10:15:27;;;;;;;38.15;36.10;;;;;;;;;;5060812;28;20112;-49
2024/02/17 10:17:55;;;;;;;34.75;32.85;;;;;;;;;;5059428;28;20422;-53
2024/02/17 10:20:20;;;;;;;35.05;33.08;;;;;;;;;;5064217;28;20068;-52
2024/02/17 10:22:46;;;;;;;37.35;35.08;;;;;;;;;;5062631;28;20064;-63
2024/02/17 10:25:13;;;;;;;38.40;36.20;;;;;;;;;;5064876;28;20048;-52
2024/02/17 10:27:39;;;;;;;37.33;35.38;;;;;;;;;;5062450;28;20143;-53
2024/02/17 10:30:25;;;;;;;39.25;37.25;;;;;;;;;;5065661;28;20129;-52
2024/02/17 10:32:50;;;;;;;37.17;35.17;;;;;;;;;;5059589;28;20025;-52
2024/02/17 10:35:16;;;;;;;31.13;29.52;;;;;;;;;;5060513;28;20655;-51
2024/02/17 10:37:42;;;;;;;34.88;32.92;;;;;;;;;;5060534;28;20039;-53
2024/02/17 10:40:09;;;;;;;35.55;33.72;;;;;;;;;;5066743;28;20044;-62
2024/02/17 10:42:35;;;;;;;37.13;35.15;;;;;;;;;;5061276;28;20071;-63
2024/02/17 10:45:00;;;;;;;37.58;35.58;;;;;;;;;;5069581;28;20028;-51
2024/02/17 10:47:35;;;;;;;38.63;36.47;;;;;;;;;;5065394;28;20462;-53
2024/02/17 10:50:09;;;;;;;36.33;34.40;;;;;;;;;;5063428;28;20044;-63
2024/02/17 10:52:44;;;;;;;35.88;33.88;;;;;;;;;;5058752;28;20140;-63
2024/02/17 10:55:12;;;;;;;33.85;32.05;;;;;;;;;;5064654;28;20032;-63
2024/02/17 10:57:56;;;;;;;36.67;34.78;;;;;;;;;;5062366;28;20025;-62
2024/02/17 11:00:23;;;;;;;35.17;33.28;;;;;;;;;;5062616;28;20033;-62
2024/02/17 11:02:50;;;;;;;30.13;28.52;;;;;;;;;;5065808;28;20115;-48
2024/02/17 11:05:18;;;;;;;29.35;27.80;;;;;;;;;;5061935;28;20050;-49
2024/02/17 11:07:44;;;;;;;28.38;26.77;;;;;;;;;;5059072;28;20041;-62
2024/02/17 11:10:11;;;;;;;27.25;25.75;;;;;;;;;;5060714;28;20036;-47
2024/02/17 11:12:37;;;;;;;32.10;30.38;;;;;;;;;;5061465;28;20497;-62
2024/02/17 11:15:09;;;;;;;31.13;29.33;;;;;;;;;;5060647;28;20044;-51
2024/02/17 11:17:44;;;;;;;32.90;31.08;;;;;;;;;;5063015;28;20613;-61
2024/02/17 11:20:14;;;;;;;28.98;27.33;;;;;;;;;;5063397;28;20080;-62
2024/02/17 11:22:48;;;;;;;26.00;24.60;;;;;;;;;;5060367;28;20033;-61
2024/02/17 11:25:28;;;;;;;33.55;31.65;;;;;;;;;;5060474;28;20154;-63
2024/02/17 11:27:53;;;;;;;31.10;29.20;;;;;;;;;;5058605;28;20038;-62
2024/02/17 11:30:19;;;;;;;41.38;39.05;;;;;;;;;;5059007;28;20036;-49
2024/02/17 11:32:51;;;;;;;46.63;44.15;;;;;;;;;;5061870;28;20059;-52
2024/02/17 11:35:19;;;;;;;60.05;56.95;;;;;;;;;;5061955;28;20035;-64
2024/02/17 11:37:46;;;;;;;60.28;57.13;;;;;;;;;;5060730;28;20130;-61
2024/02/17 11:40:13;;;;;;;58.92;55.88;;;;;;;;;;5059675;28;20041;-62
2024/02/17 11:42:41;;;;;;;61.92;58.70;;;;;;;;;;5059213;28;20117;-63
2024/02/17 11:45:07;;;;;;;68.05;64.43;;;;;;;;;;5063735;28;20040;-61
2024/02/17 11:47:32;;;;;;;56.22;53.20;;;;;;;;;;5065721;28;20085;-62
2024/02/17 11:50:10;;;;;;;72.68;67.55;;;;;;;;;;5065958;28;20125;-63
2024/02/17 11:52:38;;;;;;;65.50;62.15;;;;;;;;;;5057859;28;20056;-51
2024/02/17 11:55:05;;;;;;;62.75;59.33;;;;;;;;;;5064160;28;20044;-62
2024/02/17 11:57:31;;;;;;;61.15;58.00;;;;;;;;;;5058609;28;20147;-63
2024/02/17 11:59:56;;;;;;;57.42;54.47;;;;;;;;;;5065146;28;20143;-47
2024/02/17 12:02:23;;;;;;;76.80;72.95;;;;;;;;;;5063726;28;20051;-46
2024/02/17 12:04:48;;;;;;;77.65;73.70;;;;;;;;;;5064463;28;20033;-46
2024/02/17 12:07:14;;;;;;;67.57;64.18;;;;;;;;;;5063979;28;20089;-50
2024/02/17 12:09:39;;;;;;;69.05;65.57;;;;;;;;;;5066860;28;20100;-48
2024/02/17 12:12:05;;;;;;;55.88;52.97;;;;;;;;;;5064448;28;20412;-51
2024/02/17 12:14:31;;;;;;;74.88;70.95;;;;;;;;;;5063438;28;20040;-62
2024/02/17 12:16:57;;;;;;;83.20;78.97;;;;;;;;;;5060789;28;20090;-62
2024/02/17 12:19:25;;;;;;;78.75;74.63;;;;;;;;;;5061192;28;20036;-52
2024/02/17 12:21:52;;;;;;;84.43;80.07;;;;;;;;;;5062386;28;20255;-48
2024/02/17 12:24:18;;;;;;;84.53;80.30;;;;;;;;;;5062468;28;20078;-49
2024/02/17 12:26:44;;;;;;;83.75;79.50;;;;;;;;;;5065867;28;20381;-50
2024/02/17 12:29:09;;;;;;;79.28;75.25;;;;;;;;;;5062297;28;20037;-47
2024/02/17 12:31:35;;;;;;;81.40;77.28;;;;;;;;;;5062790;28;20028;-47
2024/02/17 12:34:01;;;;;;;90.45;85.93;;;;;;;;;;5065275;28;20029;-63
2024/02/17 12:36:26;;;;;;;87.78;83.07;;;;;;;;;;5063275;28;20527;-49
2024/02/17 12:39:03;;;;;;;93.10;88.35;;;;;;;;;;5059424;28;20028;-49
2024/02/17 12:41:29;;;;;;;96.63;91.22;;;;;;;;;;5060589;28;20033;-61
2024/02/17 12:43:54;;;;;;;93.93;89.20;;;;;;;;;;5065717;28;20483;-62
2024/02/17 12:46:22;;;;;;;96.13;91.35;;;;;;;;;;5061125;28;20037;-49
2024/02/17 12:48:50;;;;;;;103.35;98.25;;;;;;;;;;5060092;28;20044;-52
2024/02/17 12:51:19;;;;;;;102.00;96.80;;;;;;;;;;5064707;28;20035;-62
2024/02/17 12:53:44;;;;;;;90.78;86.18;;;;;;;;;;5062381;28;20099;-62
2024/02/17 12:56:10;;;;;;;84.97;80.78;;;;;;;;;;5067136;28;20489;-62
2024/02/17 12:58:35;;;;;;;82.63;78.50;;;;;;;;;;5059414;28;20036;-62
2024/02/17 13:01:00;;;;;;;80.85;76.80;;;;;;;;;;5060659;28;20031;-62
2024/02/17 13:03:27;;;;;;;76.90;73.05;;;;;;;;;;5061167;28;20045;-61
2024/02/17 13:05:52;;;;;;;78.13;74.25;;;;;;;;;;5063940;28;20043;-50
2024/02/17 13:08:18;;;;;;;76.20;72.38;;;;;;;;;;5063751;28;20040;-61
2024/02/17 13:10:43;;;;;;;72.35;68.70;;;;;;;;;;5061866;28;20085;-63
2024/02/17 13:13:09;;;;;;;65.07;61.22;;;;;;;;;;5061728;28;20033;-49
2024/02/17 13:15:34;;;;;;;62.03;58.83;;;;;;;;;;5059332;28;20032;-47
2024/02/17 13:18:03;;;;;;;59.53;56.47;;;;;;;;;;5064405;28;20446;-47
2024/02/17 13:20:29;;;;;;;56.35;53.50;;;;;;;;;;5062296;28;20043;-47
2024/02/17 13:22:54;;;;;;;57.58;54.58;;;;;;;;;;5062741;28;20436;-50
2024/02/17 13:25:20;;;;;;;55.45;52.60;;;;;;;;;;5062922;28;20044;-62
2024/02/17 13:27:45;;;;;;;59.10;56.05;;;;;;;;;;5060149;28;20098;-62
2024/02/17 13:30:14;;;;;;;55.28;52.38;;;;;;;;;;5056530;28;20037;-46
2024/02/17 13:32:45;;;;;;;52.78;50.10;;;;;;;;;;5059486;28;20055;-47
2024/02/17 13:35:12;;;;;;;53.67;50.92;;;;;;;;;;5062714;28;20035;-49
2024/02/17 13:37:38;;;;;;;51.90;48.65;;;;;;;;;;5060532;28;20469;-50
2024/02/17 13:40:06;;;;;;;54.60;51.60;;;;;;;;;;5058590;28;20044;-51
2024/02/17 13:42:31;;;;;;;50.10;47.45;;;;;;;;;;5059192;28;20048;-49
2024/02/17 13:44:57;;;;;;;54.45;51.35;;;;;;;;;;5060908;28;20036;-51
2024/02/17 13:47:25;;;;;;;53.47;50.58;;;;;;;;;;5059719;28;20052;-62
2024/02/17 13:49:50;;;;;;;53.30;50.55;;;;;;;;;;5062204;28;20036;-49
2024/02/17 13:52:16;;;;;;;53.55;50.78;;;;;;;;;;5062515;28;20319;-62
2024/02/17 13:54:43;;;;;;;55.13;52.15;;;;;;;;;;5060244;28;20244;-46
2024/02/17 13:57:08;;;;;;;52.60;49.90;;;;;;;;;;5060426;28;20398;-50
2024/02/17 13:59:40;;;;;;;48.88;46.38;;;;;;;;;;5056967;28;20071;-46
2024/02/17 14:02:08;;;;;;;53.95;51.15;;;;;;;;;;5059618;28;20389;-46
2024/02/17 14:04:35;;;;;;;46.03;43.63;;;;;;;;;;5059082;28;20610;-48
2024/02/17 14:07:00;;;;;;;48.45;45.88;;;;;;;;;;5060022;28;20128;-47
2024/02/17 14:09:26;;;;;;;53.20;50.38;;;;;;;;;;5060569;28;20394;-49
2024/02/17 14:11:51;;;;;;;49.28;46.67;;;;;;;;;;5058133;28;20032;-47
2024/02/17 14:14:16;;;;;;;52.22;48.80;;;;;;;;;;5064458;28;20036;-50